Terminal Aerodrome Forecast
Issued by NWS Burlington, VT

Home | Current Version | Previous Version | Text Only | Print | Product List | Glossary On
Versions: 1 2 3 4 5 6 7 8 9 10 11
000
FTUS41 KBTV 240531
TAFBTV
TAF
KBTV 240531Z 2406/2506 10003KT P6SM BKN060 OVC090
     FM240900 12004KT P6SM VCSH OVC050
     FM241300 13005KT P6SM -SHRA SCT035 OVC045
     FM241600 14006KT 4SM SHRA BR OVC025
     FM241900 14006KT 3SM -SHRA BR OVC015
     FM242300 14007KT 5SM -SHRA BR OVC022=

USA.gov is the U.S. government's official web portal to all federal, state and local government web resources and services.